createdAt,value
2023-03-10T00:00:19.573Z,24.48
2023-03-10T00:01:20.532Z,24.48
2023-03-10T00:02:19.556Z,24.47
2023-03-10T00:03:19.550Z,24.48
2023-03-10T00:04:19.601Z,24.50
2023-03-10T00:05:19.579Z,24.47
2023-03-10T00:06:19.611Z,24.48
2023-03-10T00:54:57.460Z,24.50
2023-03-10T02:55:57.335Z,24.48
2023-03-10T03:43:56.890Z,24.47
2023-03-10T04:02:57.012Z,24.46
2023-03-10T05:10:56.131Z,24.71
2023-03-10T05:36:55.873Z,24.81
2023-03-10T06:01:55.644Z,24.88
2023-03-10T07:34:54.980Z,25.00
2023-03-10T07:44:54.704Z,25.03
2023-03-10T07:45:54.808Z,25.00
2023-03-10T08:09:54.502Z,25.44
2023-03-10T08:15:54.440Z,25.53
2023-03-10T08:27:54.306Z,25.70
2023-03-10T08:52:54.141Z,25.84
2023-03-10T09:00:54.138Z,25.93
2023-03-10T09:02:54.204Z,25.99
2023-03-10T09:07:53.946Z,26.03
2023-03-10T09:08:53.949Z,26.08
2023-03-10T09:13:07.285Z,26.10
2023-03-10T09:13:53.934Z,26.12
2023-03-10T09:14:55.141Z,26.12
2023-03-10T09:15:53.914Z,26.13
2023-03-10T09:16:54.000Z,26.15
2023-03-10T09:17:53.851Z,26.17
2023-03-10T09:18:54.150Z,26.16
2023-03-10T09:20:53.841Z,26.20
2023-03-10T09:21:54.189Z,26.20
2023-03-10T09:22:53.827Z,26.20
2023-03-10T09:23:54.195Z,26.23
2023-03-10T09:24:53.818Z,26.25
2023-03-10T09:25:54.182Z,26.26
2023-03-10T09:27:53.797Z,26.26
2023-03-10T09:29:53.821Z,26.25
2023-03-10T09:31:53.855Z,26.25
2023-03-10T09:32:54.271Z,26.22
2023-03-10T09:33:53.732Z,26.25
2023-03-10T09:34:53.726Z,26.25
2023-03-10T09:36:05.897Z,26.22
2023-03-10T09:37:53.709Z,26.27
2023-03-10T09:38:53.709Z,26.27
2023-03-10T09:39:53.682Z,26.27
2023-03-10T09:40:53.672Z,26.25
2023-03-10T09:41:53.662Z,26.25
2023-03-10T09:42:53.700Z,26.22
2023-03-10T09:43:55.429Z,26.25
2023-03-10T09:44:53.690Z,26.25
2023-03-10T09:45:53.791Z,26.25
2023-03-10T09:46:53.596Z,26.22
2023-03-10T09:47:53.622Z,26.25
2023-03-10T09:48:53.683Z,26.23
2023-03-10T09:49:53.594Z,26.23
2023-03-10T09:50:53.577Z,26.20
2023-03-10T09:51:53.582Z,26.22
2023-03-10T09:52:53.573Z,26.19
2023-03-10T09:53:53.553Z,26.20
2023-03-10T09:54:53.549Z,26.19
2023-03-10T09:55:53.542Z,26.20
2023-03-10T09:56:55.523Z,26.19
2023-03-10T09:57:53.678Z,26.17
2023-03-10T09:58:53.538Z,26.20
2023-03-10T09:59:53.509Z,26.20
2023-03-10T10:00:53.499Z,26.20
2023-03-10T10:01:53.476Z,26.19
2023-03-10T10:02:53.767Z,26.17
2023-03-10T10:03:53.902Z,26.22
2023-03-10T10:04:53.562Z,26.19
2023-03-10T10:05:53.440Z,26.19
2023-03-10T10:06:53.414Z,26.20
2023-03-10T10:07:53.421Z,26.23
2023-03-10T10:09:03.523Z,26.22
2023-03-10T10:09:53.385Z,26.22
2023-03-10T10:10:53.660Z,26.22
2023-03-10T10:11:53.377Z,26.23
2023-03-10T10:12:53.669Z,26.25
2023-03-10T10:13:53.355Z,26.25
2023-03-10T10:14:57.504Z,26.26
2023-03-10T10:16:07.334Z,26.25
2023-03-10T10:16:53.352Z,26.27
2023-03-10T10:17:58.550Z,26.27
2023-03-10T10:18:53.379Z,26.29
2023-03-10T10:19:53.302Z,26.25
2023-03-10T10:20:53.306Z,26.26
2023-03-10T10:21:53.340Z,26.27
2023-03-10T10:22:53.270Z,26.27
2023-03-10T10:23:53.666Z,26.29
2023-03-10T10:24:53.355Z,26.27
2023-03-10T10:25:53.243Z,26.25
2023-03-10T10:26:53.226Z,26.25
2023-03-10T10:27:53.229Z,26.25
2023-03-10T10:28:53.677Z,26.25
2023-03-10T10:29:53.202Z,26.25
2023-03-10T10:30:53.733Z,26.20
2023-03-10T10:31:53.214Z,26.22
2023-03-10T10:32:53.234Z,26.15
2023-03-10T10:33:53.694Z,26.13
2023-03-10T10:34:53.172Z,26.10
2023-03-10T10:36:53.142Z,26.03
2023-03-10T10:37:53.132Z,26.00
2023-03-10T10:38:53.133Z,25.96
2023-03-10T10:39:53.143Z,25.93
2023-03-10T10:40:53.173Z,25.93
2023-03-10T10:45:53.229Z,25.84
2023-03-10T10:48:53.186Z,25.74
2023-03-10T10:53:53.203Z,25.67
2023-03-10T11:00:53.238Z,25.57
2023-03-10T11:05:55.397Z,25.51
2023-03-10T11:10:53.184Z,25.45
2023-03-10T11:13:53.195Z,25.40
2023-03-10T11:17:53.190Z,25.33
2023-03-10T11:22:53.196Z,25.29
2023-03-10T13:11:51.733Z,24.86
2023-03-10T13:16:51.754Z,24.88
2023-03-10T13:21:51.642Z,24.86
2023-03-10T13:25:51.742Z,24.88
2023-03-10T13:28:51.577Z,24.89
2023-03-10T13:39:51.471Z,24.88
2023-03-10T14:03:51.327Z,24.79
2023-03-10T14:28:51.025Z,24.75
2023-03-10T16:33:49.892Z,24.70
2023-03-10T16:47:49.774Z,24.65
2023-03-10T16:48:49.753Z,24.68
2023-03-10T16:49:49.740Z,24.68
2023-03-10T16:50:49.729Z,24.67
2023-03-10T16:51:49.729Z,24.67
2023-03-10T16:52:49.711Z,24.65
2023-03-10T16:53:49.707Z,24.67
2023-03-10T16:54:49.720Z,24.64
2023-03-10T16:55:49.684Z,24.65
2023-03-10T16:56:49.676Z,24.65
2023-03-10T16:57:49.663Z,24.65
2023-03-10T16:58:49.673Z,24.65
2023-03-10T16:59:49.652Z,24.65
2023-03-10T17:00:49.734Z,24.68
2023-03-10T17:01:49.638Z,24.67
2023-03-10T17:02:49.622Z,24.64
2023-03-10T17:03:49.654Z,24.65
2023-03-10T17:04:49.614Z,24.64
2023-03-10T17:05:49.597Z,24.70
2023-03-10T17:06:49.590Z,24.64
2023-03-10T17:07:55.475Z,24.64
2023-03-10T17:08:49.567Z,24.64
2023-03-10T17:09:49.556Z,24.64
2023-03-10T17:10:49.575Z,24.65
2023-03-10T17:11:49.541Z,24.62
2023-03-10T17:12:49.528Z,24.64
2023-03-10T17:13:49.539Z,24.62
2023-03-10T17:14:49.516Z,24.64
2023-03-10T17:15:49.503Z,24.64
2023-03-10T17:16:49.569Z,24.65
2023-03-10T17:17:49.483Z,24.64
2023-03-10T17:18:49.477Z,24.64
2023-03-10T17:19:49.466Z,24.64
2023-03-10T17:20:49.457Z,24.64
2023-03-10T17:21:49.472Z,24.64
2023-03-10T17:22:49.439Z,24.62
2023-03-10T17:23:49.432Z,24.62
2023-03-10T17:24:49.449Z,24.64
2023-03-10T17:25:49.415Z,24.65
2023-03-10T17:26:49.440Z,24.62
2023-03-10T17:27:49.399Z,24.64
2023-03-10T17:28:49.392Z,24.61
2023-03-10T17:29:49.377Z,24.62
2023-03-10T17:30:49.368Z,24.62
2023-03-10T17:31:49.549Z,24.62
2023-03-10T17:32:49.458Z,24.62
2023-03-10T17:33:49.341Z,24.61
2023-03-10T17:34:49.350Z,24.61
2023-03-10T17:35:49.481Z,24.61
2023-03-10T17:36:49.314Z,24.62
2023-03-10T17:37:49.304Z,24.62
2023-03-10T17:38:49.298Z,24.61
2023-03-10T17:39:49.293Z,24.61
2023-03-10T17:40:49.282Z,24.58
2023-03-10T17:41:49.293Z,24.62
2023-03-10T17:42:49.296Z,24.61
2023-03-10T17:43:49.254Z,24.62
2023-03-10T17:44:49.246Z,24.60
